Meteorología y climatología de Navarra
Datos de la estación - Meteo Navarra

Estación de Urbasa GN

Altitud 886 m.


Datos desde el 03/12/2019 hasta el 04/12/2019 en horario solar
Los datos son PROVISIONALES

Anterior Página 1 de 1 Siguiente Descargar: Formato para Excel 2000 o superior   Formato csv   Formato para OpenOffice Calc
Fecha Temperatura Humedad relativa Radiación global Insolación Precipitación Vel. viento 10 m Vel. viento 10 m Dir. viento 10 m
ºC % W/m² s l/m² m/s km/h º
03/12/2019 0:00 0.2 98 0.0 0 0.0 2.1 7.7 352
03/12/2019 0:10 0.1 98 0.0 0 0.1 2.5 9.1 3
03/12/2019 0:20 -0.0 98 0.0 0 0.1 2.2 7.9 8
03/12/2019 0:30 0.0 98 0.0 0 0.1 2.9 10.5 357
03/12/2019 0:40 0.0 98 0.0 0 0.0 3.2 11.4 357
03/12/2019 0:50 -0.0 98 0.0 0 0.1 2.8 10.0 353
03/12/2019 1:00 -0.1 98 0.0 0 0.1 2.3 8.1 9
03/12/2019 1:10 0.0 98 0.0 0 0.0 1.7 6.1 0
03/12/2019 1:20 -0.0 98 0.0 0 0.1 2.0 7.2 8
03/12/2019 1:30 -0.0 98 0.0 0 0.1 2.3 8.2 7
03/12/2019 1:40 -0.0 98 0.0 0 0.0 2.4 8.7 359
03/12/2019 1:50 0.0 98 0.0 0 0.1 2.6 9.4 5
03/12/2019 2:00 -0.0 98 0.0 0 0.0 3.0 10.7 2
03/12/2019 2:10 -0.2 98 0.0 0 0.1 2.8 10.1 356
03/12/2019 2:20 -0.2 98 0.0 0 0.0 2.3 8.4 353
03/12/2019 2:30 -0.3 98 0.0 0 0.0 2.2 7.8 339
03/12/2019 2:40 -0.3 98 0.0 0 0.0 2.2 7.9 2
03/12/2019 2:50 -0.3 98 0.0 0 0.0 2.8 9.9 360
03/12/2019 3:00 -0.2 98 0.0 0 0.1 2.7 9.8 1
03/12/2019 3:10 -0.2 98 0.0 0 0.0 3.1 11.0 4
03/12/2019 3:20 -0.2 98 0.0 0 0.0 2.2 7.9 351
03/12/2019 3:30 -0.3 99 0.0 0 0.0 1.9 6.8 349
03/12/2019 3:40 -0.3 99 0.0 0 0.0 2.7 9.7 354
03/12/2019 3:50 -0.3 98 0.0 0 0.0 2.2 7.8 5
03/12/2019 4:00 -0.4 99 0.0 0 0.0 2.5 9.1 7
03/12/2019 4:10 -0.4 99 0.0 0 0.0 3.0 10.8 360
03/12/2019 4:20 -0.4 98 0.0 0 0.0 3.1 11.0 356
03/12/2019 4:30 -0.5 99 0.0 0 0.0 3.0 10.9 354
03/12/2019 4:40 -0.5 99 0.0 0 0.0 1.3 4.7 17
03/12/2019 4:50 -0.5 99 0.0 0 0.0 1.6 5.8 13
03/12/2019 5:00 -0.4 99 0.0 0 0.0 1.9 7.0 356
03/12/2019 5:10 -0.5 98 0.0 0 0.0 1.9 7.0 1
03/12/2019 5:20 -0.5 99 0.0 0 0.0 1.5 5.5 357
03/12/2019 5:30 -0.4 99 0.0 0 0.0 1.8 6.5 3
03/12/2019 5:40 -0.4 99 0.0 0 0.0 1.7 5.9 18
03/12/2019 5:50 -0.4 99 0.0 0 0.0 2.1 7.5 325
03/12/2019 6:00 -0.4 99 0.0 0 0.0 1.7 6.2 340
03/12/2019 6:10 -0.4 99 0.0 0 0.0 2.5 9.1 323
03/12/2019 6:20 -0.4 99 0.0 0 0.0 2.1 7.7 341
03/12/2019 6:30 -0.4 99 0.0 0 0.0 2.8 9.9 346
03/12/2019 6:40 -0.5 99 0.0 0 0.0 2.0 7.1 8
03/12/2019 6:50 -0.5 99 0.0 0 0.0 1.6 5.9 7
03/12/2019 7:00 -0.5 99 0.0 0 0.0 1.8 6.6 357
03/12/2019 7:10 -0.4 99 0.0 0 0.0 1.9 6.7 354
03/12/2019 7:20 -0.5 99 0.0 0 0.0 1.2 4.3 12
03/12/2019 7:30 -0.4 99 0.0 0 0.0 2.1 7.4 20
03/12/2019 7:40 -0.4 99 0.0 0 0.0 1.2 4.2 10
03/12/2019 7:50 -0.4 99 0.6 0 0.0 2.0 7.0 358
03/12/2019 8:00 -0.3 99 0.0 0 0.1 2.4 8.5 340
03/12/2019 8:10 -0.4 99 4.0 0 0.0 2.3 8.2 327
03/12/2019 8:20 -0.3 99 10.9 0 0.0 1.9 6.7 335
03/12/2019 8:30 -0.3 99 8.5 0 0.0 2.2 7.7 327
03/12/2019 8:40 -0.4 99 15.0 0 0.0 2.3 8.4 345
03/12/2019 8:50 -0.4 99 22.2 0 0.0 1.9 6.9 322
03/12/2019 9:00 -0.3 99 37.5 0 0.0 1.6 5.6 340
03/12/2019 9:10 -0.4 99 56.1 0 0.1 2.2 7.9 340
03/12/2019 9:20 -0.4 99 53.0 0 0.0 2.6 9.3 335
03/12/2019 9:30 -0.3 99 50.1 0 0.1 1.8 6.3 341
03/12/2019 9:40 -0.3 99 86.5 0 0.0 2.0 7.1 330
03/12/2019 9:50 -0.2 99 78.2 0 0.1 2.1 7.7 347
03/12/2019 10:00 -0.2 99 111.0 0 0.1 2.4 8.7 349
03/12/2019 10:10 -0.1 99 151.9 196 0.0 2.0 7.3 1
03/12/2019 10:20 -0.1 99 141.8 40 0.1 2.7 9.5 359
03/12/2019 10:30 -0.0 99 139.0 58 0.0 2.5 9.0 359
03/12/2019 10:40 0.1 99 132.5 16 0.0 1.7 6.0 344
03/12/2019 10:50 0.1 99 109.9 0 0.0 1.5 5.4 353
03/12/2019 11:00 0.1 99 106.6 0 0.0 2.1 7.4 353
03/12/2019 11:10 0.1 99 134.1 0 0.0 1.9 6.7 344
03/12/2019 11:20 0.1 98 113.5 0 0.0 1.8 6.3 352
03/12/2019 11:30 0.2 99 93.8 0 0.0 1.5 5.5 337
03/12/2019 11:40 0.1 98 128.7 0 0.0 2.2 8.0 355
03/12/2019 11:50 0.1 98 104.1 0 0.0 1.3 4.8 358
03/12/2019 12:00 0.3 98 140.0 0 0.0 1.4 5.1 5
03/12/2019 12:10 0.3 98 138.0 0 0.0 1.4 5.1 336
03/12/2019 12:20 0.3 98 119.3 0 0.0 1.7 6.0 1
03/12/2019 12:30 0.3 98 99.9 0 0.0 1.0 3.6 325
03/12/2019 12:40 0.2 98 75.7 0 0.0 1.4 5.0 352
03/12/2019 12:50 0.1 98 58.1 0 0.0 0.7 2.4 315
03/12/2019 13:00 0.2 98 89.6 0 0.0 1.3 4.7 340
03/12/2019 13:10 0.2 98 95.4 0 0.0 1.6 5.7 335
03/12/2019 13:20 0.0 98 82.5 0 0.0 1.2 4.2 332
03/12/2019 13:30 0.2 98 91.6 0 0.0 0.1 0.4 169
03/12/2019 13:40 0.2 97 69.5 0 0.0 1.1 4.1 315
03/12/2019 13:50 0.1 97 73.4 0 0.0 1.2 4.4 322
03/12/2019 14:00 0.2 96 79.1 0 0.0 0.8 3.0 298
03/12/2019 14:10 0.3 95 88.5 0 0.0 0.9 3.3 309
03/12/2019 14:20 0.4 95 80.6 0 0.0 1.1 3.8 297
03/12/2019 14:30 0.4 94 96.3 0 0.0 1.2 4.2 266
03/12/2019 14:40 0.5 93 104.3 0 0.0 0.7 2.4 264
03/12/2019 14:50 0.6 92 85.8 0 0.0 0.3 1.0 301
03/12/2019 15:00 0.7 93 85.2 0 0.0 0.3 1.2 213
03/12/2019 15:10 0.7 92 91.7 0 0.0 0.9 3.2 233
03/12/2019 15:20 0.8 92 147.4 440 0.0 1.2 4.2 180
03/12/2019 15:30 0.9 91 156.9 600 0.0 0.6 2.1 168
03/12/2019 15:40 0.8 91 64.4 52 0.0 1.1 3.9 110
03/12/2019 15:50 0.9 90 77.1 560 0.0 1.1 4.1 119
03/12/2019 16:00 1.0 89 48.2 240 0.0 0.8 2.9 116
03/12/2019 16:10 0.8 91 24.3 0 0.0 0.2 0.7 95
03/12/2019 16:20 0.5 93 3.3 0 0.0 0.4 1.5 244
03/12/2019 16:30 0.1 94 0.0 0 0.0 0.7 2.4 254
03/12/2019 16:40 -0.2 95 0.0 0 0.0 0.4 1.3 259
03/12/2019 16:50 -0.7 95 0.0 0 0.0 0.0 0.1 15
03/12/2019 17:00 -1.1 95 0.0 0 0.0 0.0 0.0 0
03/12/2019 17:10 -1.5 95 0.0 0 0.0 0.1 0.4 86
03/12/2019 17:20 -1.7 96 0.0 0 0.0 0.3 1.1 273
03/12/2019 17:30 -1.6 96 0.0 0 0.0 0.4 1.3 244
03/12/2019 17:40 -1.9 97 0.0 0 0.0 0.0 0.0 0
03/12/2019 17:50 -1.8 97 0.0 0 0.0 0.2 0.5 149
03/12/2019 18:00 -2.0 97 0.0 0 0.0 0.2 0.6 46
03/12/2019 18:10 -1.9 97 0.0 0 0.0 0.2 0.6 14
03/12/2019 18:20 -2.0 97 0.0 0 0.0 0.6 2.3 250
03/12/2019 18:30 -2.1 97 0.0 0 0.0 0.1 0.5 222
03/12/2019 18:40 -2.3 97 0.0 0 0.0 0.2 0.8 338
03/12/2019 18:50 -2.3 97 0.0 0 0.0 0.1 0.5 81
03/12/2019 19:00 -2.4 97 0.0 0 0.0 0.2 0.6 185
03/12/2019 19:10 -2.5 97 0.0 0 0.0 0.1 0.3 179
03/12/2019 19:20 -2.6 97 0.0 0 0.0 0.0 0.0 213
03/12/2019 19:30 -2.6 97 0.0 0 0.0 0.3 1.1 225
03/12/2019 19:40 -2.8 97 0.0 0 0.0 0.2 0.9 70
03/12/2019 19:50 -2.9 97 0.0 0 0.0 0.1 0.2 230
03/12/2019 20:00 -3.0 97 0.0 0 0.0 0.1 0.2 270
03/12/2019 20:10 -3.1 97 0.0 0 0.0 0.4 1.6 97
03/12/2019 20:20 -3.1 97 0.0 0 0.0 0.4 1.4 90
03/12/2019 20:30 -3.0 97 0.0 0 0.0 0.0 0.0 111
03/12/2019 20:40 -3.0 97 0.0 0 0.0 0.0 0.0 0
03/12/2019 20:50 -3.2 97 0.0 0 0.0 0.2 0.7 247
03/12/2019 21:00 -3.3 97 0.0 0 0.0 0.1 0.2 170
03/12/2019 21:10 -3.4 97 0.0 0 0.0 0.1 0.3 97
03/12/2019 21:20 -3.5 97 0.0 0 0.0 0.4 1.3 100
03/12/2019 21:30 -3.6 97 0.0 0 0.0 0.4 1.5 90
03/12/2019 21:40 -3.6 97 0.0 0 0.0 0.8 2.7 90
03/12/2019 21:50 -3.4 97 0.0 0 0.0 0.6 2.2 104
03/12/2019 22:00 -3.5 97 0.0 0 0.0 0.8 2.8 102
03/12/2019 22:10 -3.3 97 0.0 0 0.0 1.1 4.0 95
03/12/2019 22:20 -3.4 97 0.0 0 0.0 1.1 3.9 103
03/12/2019 22:30 -3.2 97 0.0 0 0.0 1.1 4.0 109
03/12/2019 22:40 -3.1 97 0.0 0 0.0 1.3 4.8 114
03/12/2019 22:50 -3.0 97 0.0 0 0.0 1.6 5.7 126
03/12/2019 23:00 -2.4 98 0.0 0 0.0 1.7 6.2 127
03/12/2019 23:10 -2.1 97 0.0 0 0.0 1.8 6.4 139
03/12/2019 23:20 -2.1 97 0.0 0 0.0 1.7 6.1 134
03/12/2019 23:30 -1.9 97 0.0 0 0.0 1.6 5.7 135
03/12/2019 23:40 -2.3 97 0.0 0 0.0 1.6 5.6 134
03/12/2019 23:50 -1.8 97 0.0 0 0.0 1.5 5.2 133
Anterior Página 1 de 1 Siguiente

NOTA: Tipo de datos según el color:
   - Valores diarios o 10 minutos correctos
   - Valores diarios calculados a partir de un número de datos 10 minutos menor que 144 y mayor que 120, o de un número de datos semihorarios menor que 48 y mayor que 40 (caso de las estaciones de Riegos de Navarra y del MARM)
   - Valores diez minutos estimados


Contacto        Enlaces        Aviso legal